sensor_id;sensor_type;location;lat;lon;timestamp;temperature;humidity
40670;DHT22;26355;45.528;9.234;2023-04-01T00:00:28;13.90;99.90
40670;DHT22;26355;45.528;9.234;2023-04-01T00:02:54;13.80;99.90
40670;DHT22;26355;45.528;9.234;2023-04-01T00:05:20;13.90;99.90
40670;DHT22;26355;45.528;9.234;2023-04-01T00:07:46;13.80;99.90
40670;DHT22;26355;45.528;9.234;2023-04-01T00:10:12;13.80;99.90
40670;DHT22;26355;45.528;9.234;2023-04-01T00:12:38;13.80;99.90
40670;DHT22;26355;45.528;9.234;2023-04-01T00:15:07;13.90;99.90
40670;DHT22;26355;45.528;9.234;2023-04-01T00:17:33;13.80;99.90
40670;DHT22;26355;45.528;9.234;2023-04-01T00:19:59;13.80;99.90
40670;DHT22;26355;45.528;9.234;2023-04-01T00:22:25;13.80;99.90
40670;DHT22;26355;45.528;9.234;2023-04-01T00:24:52;13.70;99.90
40670;DHT22;26355;45.528;9.234;2023-04-01T00:27:18;13.80;99.90
40670;DHT22;26355;45.528;9.234;2023-04-01T00:29:45;13.70;99.90
40670;DHT22;26355;45.528;9.234;2023-04-01T00:32:11;13.80;99.90
40670;DHT22;26355;45.528;9.234;2023-04-01T00:34:37;13.70;99.90
40670;DHT22;26355;45.528;9.234;2023-04-01T00:37:03;13.70;99.90
40670;DHT22;26355;45.528;9.234;2023-04-01T00:39:29;13.60;99.90
40670;DHT22;26355;45.528;9.234;2023-04-01T00:41:55;13.80;99.90
40670;DHT22;26355;45.528;9.234;2023-04-01T00:44:31;13.60;99.90
40670;DHT22;26355;45.528;9.234;2023-04-01T00:46:58;13.60;99.90
40670;DHT22;26355;45.528;9.234;2023-04-01T00:49:28;13.60;99.90
40670;DHT22;26355;45.528;9.234;2023-04-01T00:51:59;13.70;99.90
40670;DHT22;26355;45.528;9.234;2023-04-01T00:54:27;13.50;99.90
40670;DHT22;26355;45.528;9.234;2023-04-01T00:57:00;13.60;99.90
40670;DHT22;26355;45.528;9.234;2023-04-01T00:59:30;13.60;99.90
40670;DHT22;26355;45.528;9.234;2023-04-01T01:02:04;13.50;99.90
40670;DHT22;26355;45.528;9.234;2023-04-01T01:04:33;13.50;99.90
40670;DHT22;26355;45.528;9.234;2023-04-01T01:15:30;13.30;99.90
40670;DHT22;26355;45.528;9.234;2023-04-01T01:24:02;13.20;99.90
40670;DHT22;26355;45.528;9.234;2023-04-01T01:29:29;13.30;99.90
40670;DHT22;26355;45.528;9.234;2023-04-01T01:37:34;13.20;99.90
40670;DHT22;26355;45.528;9.234;2023-04-01T01:40:04;13.10;99.90
40670;DHT22;26355;45.528;9.234;2023-04-01T01:42:33;13.10;99.90
40670;DHT22;26355;45.528;9.234;2023-04-01T01:45:01;13.10;99.90
40670;DHT22;26355;45.528;9.234;2023-04-01T01:47:28;13.10;99.90
40670;DHT22;26355;45.528;9.234;2023-04-01T01:49:55;13.10;99.90
40670;DHT22;26355;45.528;9.234;2023-04-01T01:52:27;13.10;99.90
40670;DHT22;26355;45.528;9.234;2023-04-01T01:54:56;13.10;99.90
40670;DHT22;26355;45.528;9.234;2023-04-01T01:57:48;13.10;99.90
40670;DHT22;26355;45.528;9.234;2023-04-01T02:00:15;13.00;99.90
40670;DHT22;26355;45.528;9.234;2023-04-01T02:02:46;13.00;99.90
40670;DHT22;26355;45.528;9.234;2023-04-01T02:05:17;13.00;99.90
40670;DHT22;26355;45.528;9.234;2023-04-01T02:07:48;13.00;99.90
40670;DHT22;26355;45.528;9.234;2023-04-01T02:10:18;13.00;99.90
40670;DHT22;26355;45.528;9.234;2023-04-01T02:12:46;13.00;99.90
40670;DHT22;26355;45.528;9.234;2023-04-01T02:15:16;12.90;99.90
40670;DHT22;26355;45.528;9.234;2023-04-01T02:17:45;12.90;99.90
40670;DHT22;26355;45.528;9.234;2023-04-01T02:20:23;12.80;99.90
40670;DHT22;26355;45.528;9.234;2023-04-01T02:22:54;12.90;99.90
40670;DHT22;26355;45.528;9.234;2023-04-01T02:25:27;12.80;99.90
40670;DHT22;26355;45.528;9.234;2023-04-01T02:27:53;12.90;99.90
40670;DHT22;26355;45.528;9.234;2023-04-01T02:30:21;12.80;99.90
40670;DHT22;26355;45.528;9.234;2023-04-01T02:32:47;12.80;99.90
40670;DHT22;26355;45.528;9.234;2023-04-01T02:35:15;12.80;99.90
40670;DHT22;26355;45.528;9.234;2023-04-01T02:37:45;12.90;99.90
40670;DHT22;26355;45.528;9.234;2023-04-01T02:40:14;12.80;99.90
40670;DHT22;26355;45.528;9.234;2023-04-01T02:42:41;12.70;99.90
40670;DHT22;26355;45.528;9.234;2023-04-01T02:45:07;12.70;99.90
40670;DHT22;26355;45.528;9.234;2023-04-01T02:47:35;12.70;99.90
40670;DHT22;26355;45.528;9.234;2023-04-01T02:50:01;12.80;99.90
40670;DHT22;26355;45.528;9.234;2023-04-01T02:52:29;12.60;99.90
40670;DHT22;26355;45.528;9.234;2023-04-01T02:54:56;12.80;99.90
40670;DHT22;26355;45.528;9.234;2023-04-01T02:57:22;12.90;99.90
40670;DHT22;26355;45.528;9.234;2023-04-01T02:59:48;12.60;99.90
40670;DHT22;26355;45.528;9.234;2023-04-01T03:02:14;12.60;99.90
40670;DHT22;26355;45.528;9.234;2023-04-01T03:04:40;12.70;99.90
40670;DHT22;26355;45.528;9.234;2023-04-01T03:07:09;12.70;99.90
40670;DHT22;26355;45.528;9.234;2023-04-01T03:09:36;12.60;99.90
40670;DHT22;26355;45.528;9.234;2023-04-01T03:12:02;13.00;99.90
40670;DHT22;26355;45.528;9.234;2023-04-01T03:14:28;12.60;99.90
40670;DHT22;26355;45.528;9.234;2023-04-01T03:16:53;12.60;99.90
40670;DHT22;26355;45.528;9.234;2023-04-01T03:19:19;12.90;99.90
40670;DHT22;26355;45.528;9.234;2023-04-01T03:21:44;12.60;99.90
40670;DHT22;26355;45.528;9.234;2023-04-01T03:24:10;12.70;99.90
40670;DHT22;26355;45.528;9.234;2023-04-01T03:26:36;12.60;99.90
40670;DHT22;26355;45.528;9.234;2023-04-01T03:29:01;12.70;99.90
40670;DHT22;26355;45.528;9.234;2023-04-01T03:31:30;12.60;99.90
40670;DHT22;26355;45.528;9.234;2023-04-01T03:33:55;12.60;99.90
40670;DHT22;26355;45.528;9.234;2023-04-01T03:36:21;12.50;99.90
40670;DHT22;26355;45.528;9.234;2023-04-01T03:38:46;13.00;99.90
40670;DHT22;26355;45.528;9.234;2023-04-01T03:41:14;12.50;99.90
40670;DHT22;26355;45.528;9.234;2023-04-01T03:43:40;12.60;99.90
40670;DHT22;26355;45.528;9.234;2023-04-01T03:46:05;12.60;99.90
40670;DHT22;26355;45.528;9.234;2023-04-01T03:48:31;12.50;99.90
40670;DHT22;26355;45.528;9.234;2023-04-01T03:50:56;12.40;99.90
40670;DHT22;26355;45.528;9.234;2023-04-01T03:53:22;12.50;99.90
40670;DHT22;26355;45.528;9.234;2023-04-01T03:55:48;12.50;99.90
40670;DHT22;26355;45.528;9.234;2023-04-01T03:58:13;12.50;99.90
40670;DHT22;26355;45.528;9.234;2023-04-01T04:00:39;12.50;99.90
40670;DHT22;26355;45.528;9.234;2023-04-01T04:03:06;12.40;99.90
40670;DHT22;26355;45.528;9.234;2023-04-01T04:05:32;12.40;99.90
40670;DHT22;26355;45.528;9.234;2023-04-01T04:07:57;12.50;99.90
40670;DHT22;26355;45.528;9.234;2023-04-01T04:10:35;12.40;99.90
40670;DHT22;26355;45.528;9.234;2023-04-01T04:13:01;12.40;99.90
40670;DHT22;26355;45.528;9.234;2023-04-01T04:15:27;12.40;99.90
40670;DHT22;26355;45.528;9.234;2023-04-01T04:17:52;12.40;99.90
40670;DHT22;26355;45.528;9.234;2023-04-01T04:20:21;12.40;99.90
40670;DHT22;26355;45.528;9.234;2023-04-01T04:22:46;12.40;99.90
40670;DHT22;26355;45.528;9.234;2023-04-01T04:25:15;12.30;99.90
40670;DHT22;26355;45.528;9.234;2023-04-01T04:27:41;12.00;99.90
40670;DHT22;26355;45.528;9.234;2023-04-01T04:30:07;12.50;99.90
40670;DHT22;26355;45.528;9.234;2023-04-01T04:32:33;12.10;99.90
40670;DHT22;26355;45.528;9.234;2023-04-01T04:34:59;12.10;99.90
40670;DHT22;26355;45.528;9.234;2023-04-01T04:37:25;12.30;99.90
40670;DHT22;26355;45.528;9.234;2023-04-01T04:39:51;12.20;99.90
40670;DHT22;26355;45.528;9.234;2023-04-01T04:42:19;12.20;99.90
40670;DHT22;26355;45.528;9.234;2023-04-01T04:44:45;12.10;99.90
40670;DHT22;26355;45.528;9.234;2023-04-01T04:47:10;12.20;99.90
40670;DHT22;26355;45.528;9.234;2023-04-01T04:49:36;12.10;99.90
40670;DHT22;26355;45.528;9.234;2023-04-01T04:52:02;12.20;99.90
40670;DHT22;26355;45.528;9.234;2023-04-01T04:54:27;12.10;99.90
40670;DHT22;26355;45.528;9.234;2023-04-01T04:56:53;12.20;99.90
40670;DHT22;26355;45.528;9.234;2023-04-01T04:59:19;12.10;99.90
40670;DHT22;26355;45.528;9.234;2023-04-01T05:01:44;12.00;99.90
40670;DHT22;26355;45.528;9.234;2023-04-01T05:04:10;12.00;99.90
40670;DHT22;26355;45.528;9.234;2023-04-01T05:06:36;12.00;99.90
40670;DHT22;26355;45.528;9.234;2023-04-01T05:09:01;12.10;99.90
40670;DHT22;26355;45.528;9.234;2023-04-01T05:11:27;11.80;99.90
40670;DHT22;26355;45.528;9.234;2023-04-01T05:13:53;12.00;99.90
40670;DHT22;26355;45.528;9.234;2023-04-01T05:16:19;11.90;99.90
40670;DHT22;26355;45.528;9.234;2023-04-01T05:18:46;11.90;99.90
40670;DHT22;26355;45.528;9.234;2023-04-01T05:21:13;12.00;99.90
40670;DHT22;26355;45.528;9.234;2023-04-01T05:23:42;12.00;99.90
40670;DHT22;26355;45.528;9.234;2023-04-01T05:26:12;12.00;99.90
40670;DHT22;26355;45.528;9.234;2023-04-01T05:28:39;12.10;99.90
40670;DHT22;26355;45.528;9.234;2023-04-01T05:31:06;12.40;99.90
40670;DHT22;26355;45.528;9.234;2023-04-01T05:33:32;12.30;99.90
40670;DHT22;26355;45.528;9.234;2023-04-01T05:36:06;12.40;99.90
40670;DHT22;26355;45.528;9.234;2023-04-01T05:38:32;12.50;99.90
40670;DHT22;26355;45.528;9.234;2023-04-01T05:41:02;12.60;99.90
40670;DHT22;26355;45.528;9.234;2023-04-01T05:43:35;12.90;99.90
40670;DHT22;26355;45.528;9.234;2023-04-01T05:46:01;13.30;99.90
40670;DHT22;26355;45.528;9.234;2023-04-01T05:48:27;13.80;99.90
40670;DHT22;26355;45.528;9.234;2023-04-01T05:50:53;14.30;99.90
40670;DHT22;26355;45.528;9.234;2023-04-01T05:53:19;14.90;99.90
40670;DHT22;26355;45.528;9.234;2023-04-01T05:55:45;15.40;99.90
40670;DHT22;26355;45.528;9.234;2023-04-01T05:58:11;15.80;99.90
40670;DHT22;26355;45.528;9.234;2023-04-01T06:00:36;16.20;99.90
40670;DHT22;26355;45.528;9.234;2023-04-01T06:03:05;16.50;99.90
40670;DHT22;26355;45.528;9.234;2023-04-01T06:05:38;16.90;99.90
40670;DHT22;26355;45.528;9.234;2023-04-01T06:08:13;17.10;99.90
40670;DHT22;26355;45.528;9.234;2023-04-01T06:14:07;17.70;99.90
40670;DHT22;26355;45.528;9.234;2023-04-01T06:16:44;17.80;99.90
40670;DHT22;26355;45.528;9.234;2023-04-01T06:28:15;18.60;99.10
40670;DHT22;26355;45.528;9.234;2023-04-01T06:30:49;18.70;99.10
40670;DHT22;26355;45.528;9.234;2023-04-01T06:37:03;18.80;98.80
40670;DHT22;26355;45.528;9.234;2023-04-01T06:42:45;19.10;99.30
40670;DHT22;26355;45.528;9.234;2023-04-01T06:56:37;19.80;97.80
40670;DHT22;26355;45.528;9.234;2023-04-01T06:59:41;19.80;98.40
40670;DHT22;26355;45.528;9.234;2023-04-01T07:04:49;20.00;98.10
40670;DHT22;26355;45.528;9.234;2023-04-01T07:07:52;20.00;98.00
40670;DHT22;26355;45.528;9.234;2023-04-01T07:10:33;20.00;97.70
40670;DHT22;26355;45.528;9.234;2023-04-01T07:13:04;19.90;97.70
40670;DHT22;26355;45.528;9.234;2023-04-01T07:15:36;20.00;98.00
40670;DHT22;26355;45.528;9.234;2023-04-01T07:18:18;19.90;98.00
40670;DHT22;26355;45.528;9.234;2023-04-01T07:20:44;19.80;98.00
40670;DHT22;26355;45.528;9.234;2023-04-01T07:23:28;19.70;98.30
40670;DHT22;26355;45.528;9.234;2023-04-01T07:26:13;19.60;97.90
40670;DHT22;26355;45.528;9.234;2023-04-01T07:28:40;19.60;98.20
40670;DHT22;26355;45.528;9.234;2023-04-01T07:33:49;19.50;98.00
40670;DHT22;26355;45.528;9.234;2023-04-01T07:39:15;19.50;98.00
40670;DHT22;26355;45.528;9.234;2023-04-01T07:42:15;19.40;98.00
40670;DHT22;26355;45.528;9.234;2023-04-01T07:44:50;19.30;97.70
40670;DHT22;26355;45.528;9.234;2023-04-01T07:55:50;19.60;98.30
40670;DHT22;26355;45.528;9.234;2023-04-01T07:58:51;19.70;98.20
40670;DHT22;26355;45.528;9.234;2023-04-01T08:04:29;19.30;96.60
40670;DHT22;26355;45.528;9.234;2023-04-01T08:07:14;19.10;97.30
40670;DHT22;26355;45.528;9.234;2023-04-01T08:13:07;19.00;97.30
40670;DHT22;26355;45.528;9.234;2023-04-01T08:20:51;18.90;97.20
40670;DHT22;26355;45.528;9.234;2023-04-01T08:23:26;19.00;97.90
40670;DHT22;26355;45.528;9.234;2023-04-01T08:26:34;19.10;97.60
40670;DHT22;26355;45.528;9.234;2023-04-01T08:29:16;19.30;96.90
40670;DHT22;26355;45.528;9.234;2023-04-01T08:34:31;19.40;97.10
40670;DHT22;26355;45.528;9.234;2023-04-01T08:37:08;19.50;96.70
40670;DHT22;26355;45.528;9.234;2023-04-01T08:39:48;19.40;96.80
40670;DHT22;26355;45.528;9.234;2023-04-01T08:56:31;19.80;96.40
40670;DHT22;26355;45.528;9.234;2023-04-01T08:59:03;20.00;95.80
40670;DHT22;26355;45.528;9.234;2023-04-01T09:01:56;20.10;95.80
40670;DHT22;26355;45.528;9.234;2023-04-01T09:07:05;20.30;94.30
40670;DHT22;26355;45.528;9.234;2023-04-01T09:26:11;21.20;92.80
40670;DHT22;26355;45.528;9.234;2023-04-01T09:35:02;20.80;92.80
40670;DHT22;26355;45.528;9.234;2023-04-01T09:48:19;21.40;91.90
40670;DHT22;26355;45.528;9.234;2023-04-01T09:54:01;21.50;90.80
40670;DHT22;26355;45.528;9.234;2023-04-01T10:34:55;22.70;83.30
40670;DHT22;26355;45.528;9.234;2023-04-01T10:40:12;22.80;83.00
40670;DHT22;26355;45.528;9.234;2023-04-01T10:42:45;22.90;85.10
40670;DHT22;26355;45.528;9.234;2023-04-01T10:54:17;22.90;82.50
40670;DHT22;26355;45.528;9.234;2023-04-01T10:56:55;23.00;81.60
40670;DHT22;26355;45.528;9.234;2023-04-01T10:59:48;23.00;82.00
40670;DHT22;26355;45.528;9.234;2023-04-01T11:05:28;23.00;81.40
40670;DHT22;26355;45.528;9.234;2023-04-01T11:27:38;23.50;82.30
40670;DHT22;26355;45.528;9.234;2023-04-01T11:33:19;23.60;81.40
40670;DHT22;26355;45.528;9.234;2023-04-01T11:38:24;23.60;79.20
40670;DHT22;26355;45.528;9.234;2023-04-01T11:46:42;23.90;77.00
40670;DHT22;26355;45.528;9.234;2023-04-01T11:52:06;24.00;77.50
40670;DHT22;26355;45.528;9.234;2023-04-01T11:55:02;23.90;77.20
40670;DHT22;26355;45.528;9.234;2023-04-01T12:00:42;24.20;75.80
40670;DHT22;26355;45.528;9.234;2023-04-01T12:09:37;23.90;69.30
40670;DHT22;26355;45.528;9.234;2023-04-01T12:21:00;24.00;69.50
40670;DHT22;26355;45.528;9.234;2023-04-01T12:34:57;24.10;62.70
40670;DHT22;26355;45.528;9.234;2023-04-01T12:37:39;23.90;63.30
40670;DHT22;26355;45.528;9.234;2023-04-01T13:02:40;23.80;62.00
40670;DHT22;26355;45.528;9.234;2023-04-01T13:08:28;23.80;61.70
40670;DHT22;26355;45.528;9.234;2023-04-01T13:11:20;23.90;61.20
40670;DHT22;26355;45.528;9.234;2023-04-01T13:16:45;23.80;59.40
40670;DHT22;26355;45.528;9.234;2023-04-01T13:19:21;23.80;59.20
40670;DHT22;26355;45.528;9.234;2023-04-01T13:29:40;24.00;60.00
40670;DHT22;26355;45.528;9.234;2023-04-01T13:35:16;24.00;58.20
40670;DHT22;26355;45.528;9.234;2023-04-01T13:41:09;24.10;58.40
40670;DHT22;26355;45.528;9.234;2023-04-01T13:43:58;24.10;56.60
40670;DHT22;26355;45.528;9.234;2023-04-01T13:46:55;23.90;56.20
40670;DHT22;26355;45.528;9.234;2023-04-01T13:57:48;23.70;55.00
40670;DHT22;26355;45.528;9.234;2023-04-01T14:13:01;23.60;56.30
40670;DHT22;26355;45.528;9.234;2023-04-01T14:15:29;23.60;55.20
40670;DHT22;26355;45.528;9.234;2023-04-01T14:26:27;23.60;54.30
40670;DHT22;26355;45.528;9.234;2023-04-01T14:34:48;23.20;54.30
40670;DHT22;26355;45.528;9.234;2023-04-01T14:38:17;23.10;54.60
40670;DHT22;26355;45.528;9.234;2023-04-01T14:46:34;23.30;54.70
40670;DHT22;26355;45.528;9.234;2023-04-01T14:52:14;23.30;56.60
40670;DHT22;26355;45.528;9.234;2023-04-01T14:54:44;23.30;56.20
40670;DHT22;26355;45.528;9.234;2023-04-01T14:57:15;23.30;56.70
40670;DHT22;26355;45.528;9.234;2023-04-01T14:59:49;23.40;56.50
40670;DHT22;26355;45.528;9.234;2023-04-01T15:02:31;23.40;56.10
40670;DHT22;26355;45.528;9.234;2023-04-01T15:08:17;23.40;54.40
40670;DHT22;26355;45.528;9.234;2023-04-01T15:13:48;23.40;56.20
40670;DHT22;26355;45.528;9.234;2023-04-01T15:16:19;23.40;55.70
40670;DHT22;26355;45.528;9.234;2023-04-01T15:19:23;23.40;55.90
40670;DHT22;26355;45.528;9.234;2023-04-01T15:24:47;23.40;55.90
40670;DHT22;26355;45.528;9.234;2023-04-01T15:41:07;23.20;54.90
40670;DHT22;26355;45.528;9.234;2023-04-01T15:43:46;23.20;55.30
40670;DHT22;26355;45.528;9.234;2023-04-01T15:46:43;23.20;55.60
40670;DHT22;26355;45.528;9.234;2023-04-01T15:49:42;23.10;53.70
40670;DHT22;26355;45.528;9.234;2023-04-01T15:52:36;23.20;54.20
40670;DHT22;26355;45.528;9.234;2023-04-01T15:55:19;23.30;54.70
40670;DHT22;26355;45.528;9.234;2023-04-01T16:05:55;23.40;55.10
40670;DHT22;26355;45.528;9.234;2023-04-01T16:08:52;23.30;54.50
40670;DHT22;26355;45.528;9.234;2023-04-01T16:14:59;23.30;55.70
40670;DHT22;26355;45.528;9.234;2023-04-01T16:17:40;23.30;54.90
40670;DHT22;26355;45.528;9.234;2023-04-01T16:22:40;23.30;55.50
40670;DHT22;26355;45.528;9.234;2023-04-01T16:25:31;23.30;54.20
40670;DHT22;26355;45.528;9.234;2023-04-01T16:31:04;23.40;54.20
40670;DHT22;26355;45.528;9.234;2023-04-01T16:33:44;23.40;55.10
40670;DHT22;26355;45.528;9.234;2023-04-01T16:39:28;23.30;54.20
40670;DHT22;26355;45.528;9.234;2023-04-01T16:44:59;23.30;54.10
40670;DHT22;26355;45.528;9.234;2023-04-01T16:47:50;23.30;54.50
40670;DHT22;26355;45.528;9.234;2023-04-01T16:50:27;23.10;54.30
40670;DHT22;26355;45.528;9.234;2023-04-01T16:58:20;23.10;54.30
40670;DHT22;26355;45.528;9.234;2023-04-01T17:00:55;23.10;54.70
40670;DHT22;26355;45.528;9.234;2023-04-01T17:03:44;23.00;54.40
40670;DHT22;26355;45.528;9.234;2023-04-01T17:14:35;22.80;54.60
40670;DHT22;26355;45.528;9.234;2023-04-01T17:22:59;22.60;54.10
40670;DHT22;26355;45.528;9.234;2023-04-01T17:25:56;22.60;54.20
40670;DHT22;26355;45.528;9.234;2023-04-01T17:56:33;22.10;55.00
40670;DHT22;26355;45.528;9.234;2023-04-01T17:59:16;22.10;55.30
40670;DHT22;26355;45.528;9.234;2023-04-01T18:05:14;22.00;55.50
40670;DHT22;26355;45.528;9.234;2023-04-01T18:15:44;21.80;55.80
40670;DHT22;26355;45.528;9.234;2023-04-01T18:18:26;21.80;56.30
40670;DHT22;26355;45.528;9.234;2023-04-01T18:23:55;21.70;56.70
40670;DHT22;26355;45.528;9.234;2023-04-01T18:26:32;21.60;56.50
40670;DHT22;26355;45.528;9.234;2023-04-01T18:29:32;21.60;56.60
40670;DHT22;26355;45.528;9.234;2023-04-01T18:32:15;21.50;56.50
40670;DHT22;26355;45.528;9.234;2023-04-01T18:39:54;21.50;57.10
40670;DHT22;26355;45.528;9.234;2023-04-01T18:42:44;21.50;57.40
40670;DHT22;26355;45.528;9.234;2023-04-01T18:45:54;21.40;57.60
40670;DHT22;26355;45.528;9.234;2023-04-01T18:48:42;21.40;57.40
40670;DHT22;26355;45.528;9.234;2023-04-01T18:56:35;21.40;58.70
40670;DHT22;26355;45.528;9.234;2023-04-01T18:59:32;21.30;58.70
40670;DHT22;26355;45.528;9.234;2023-04-01T19:04:56;21.30;58.90
40670;DHT22;26355;45.528;9.234;2023-04-01T19:07:42;21.30;58.80
40670;DHT22;26355;45.528;9.234;2023-04-01T19:10:37;21.30;58.70
40670;DHT22;26355;45.528;9.234;2023-04-01T19:21:33;21.10;60.40
40670;DHT22;26355;45.528;9.234;2023-04-01T19:27:02;21.00;61.00
40670;DHT22;26355;45.528;9.234;2023-04-01T19:38:04;20.80;61.30
40670;DHT22;26355;45.528;9.234;2023-04-01T19:46:27;20.70;61.70
40670;DHT22;26355;45.528;9.234;2023-04-01T19:52:02;20.60;61.50
40670;DHT22;26355;45.528;9.234;2023-04-01T20:00:42;20.50;61.80
40670;DHT22;26355;45.528;9.234;2023-04-01T20:03:33;20.50;61.70
40670;DHT22;26355;45.528;9.234;2023-04-01T20:09:06;20.40;61.50
40670;DHT22;26355;45.528;9.234;2023-04-01T20:11:35;20.40;61.60
40670;DHT22;26355;45.528;9.234;2023-04-01T20:14:20;20.40;61.60
40670;DHT22;26355;45.528;9.234;2023-04-01T20:17:08;20.40;61.30
40670;DHT22;26355;45.528;9.234;2023-04-01T20:19:58;20.40;61.20
40670;DHT22;26355;45.528;9.234;2023-04-01T20:25:05;20.20;60.60
40670;DHT22;26355;45.528;9.234;2023-04-01T20:27:44;20.30;61.10
40670;DHT22;26355;45.528;9.234;2023-04-01T20:33:06;20.20;60.50
40670;DHT22;26355;45.528;9.234;2023-04-01T20:38:59;20.20;60.70
40670;DHT22;26355;45.528;9.234;2023-04-01T20:52:49;19.90;61.60
40670;DHT22;26355;45.528;9.234;2023-04-01T20:55:21;19.80;61.50
40670;DHT22;26355;45.528;9.234;2023-04-01T21:00:52;19.80;61.80
40670;DHT22;26355;45.528;9.234;2023-04-01T21:09:36;19.60;62.30
40670;DHT22;26355;45.528;9.234;2023-04-01T21:17:45;19.50;63.10
40670;DHT22;26355;45.528;9.234;2023-04-01T21:31:13;19.30;63.90
40670;DHT22;26355;45.528;9.234;2023-04-01T21:33:52;19.30;64.00
40670;DHT22;26355;45.528;9.234;2023-04-01T22:00:48;19.00;65.50
40670;DHT22;26355;45.528;9.234;2023-04-01T22:06:25;18.80;66.10
40670;DHT22;26355;45.528;9.234;2023-04-01T22:11:37;18.70;66.10
40670;DHT22;26355;45.528;9.234;2023-04-01T22:14:26;18.60;66.40
40670;DHT22;26355;45.528;9.234;2023-04-01T22:17:06;18.60;67.20
40670;DHT22;26355;45.528;9.234;2023-04-01T22:22:22;18.60;67.00
40670;DHT22;26355;45.528;9.234;2023-04-01T22:25:14;18.60;67.20
40670;DHT22;26355;45.528;9.234;2023-04-01T22:27:51;18.60;67.80
40670;DHT22;26355;45.528;9.234;2023-04-01T22:30:25;18.50;67.70
40670;DHT22;26355;45.528;9.234;2023-04-01T22:32:59;18.50;68.40
40670;DHT22;26355;45.528;9.234;2023-04-01T22:38:21;18.50;67.40
40670;DHT22;26355;45.528;9.234;2023-04-01T22:43:41;18.40;67.90
40670;DHT22;26355;45.528;9.234;2023-04-01T22:46:23;18.40;67.80
40670;DHT22;26355;45.528;9.234;2023-04-01T22:49:15;18.40;68.00
40670;DHT22;26355;45.528;9.234;2023-04-01T22:52:12;18.40;67.90
40670;DHT22;26355;45.528;9.234;2023-04-01T22:57:14;18.30;68.30
40670;DHT22;26355;45.528;9.234;2023-04-01T22:59:57;18.20;68.50
40670;DHT22;26355;45.528;9.234;2023-04-01T23:02:33;18.20;68.80
40670;DHT22;26355;45.528;9.234;2023-04-01T23:05:03;18.10;68.80
40670;DHT22;26355;45.528;9.234;2023-04-01T23:10:01;18.00;69.00
40670;DHT22;26355;45.528;9.234;2023-04-01T23:12:28;18.00;69.30
40670;DHT22;26355;45.528;9.234;2023-04-01T23:14:57;17.90;69.40
40670;DHT22;26355;45.528;9.234;2023-04-01T23:23:15;17.90;69.50
40670;DHT22;26355;45.528;9.234;2023-04-01T23:33:31;17.80;69.90
40670;DHT22;26355;45.528;9.234;2023-04-01T23:36:03;17.70;70.00
40670;DHT22;26355;45.528;9.234;2023-04-01T23:38:40;17.60;70.20
40670;DHT22;26355;45.528;9.234;2023-04-01T23:41:09;17.60;70.60
40670;DHT22;26355;45.528;9.234;2023-04-01T23:43:43;17.40;70.80
40670;DHT22;26355;45.528;9.234;2023-04-01T23:46:12;17.50;71.20
40670;DHT22;26355;45.528;9.234;2023-04-01T23:48:43;17.50;71.40
40670;DHT22;26355;45.528;9.234;2023-04-01T23:51:29;17.50;71.50
40670;DHT22;26355;45.528;9.234;2023-04-01T23:54:25;17.50;72.00
40670;DHT22;26355;45.528;9.234;2023-04-01T23:56:56;17.50;71.90
40670;DHT22;26355;45.528;9.234;2023-04-01T23:59:30;17.40;72.00
